Time;durP1;ratioP1;P1;durP2;ratioP2;P2;SDS_P1;SDS_P2;PMS_P1;PMS_P2;Temp;Humidity;BMP_temperature;BMP_pressure;BME280_temperature;BME280_humidity;BME280_pressure;Samples;Min_cycle;Max_cycle;Signal;HPM_P1;HPM_P2
2023/10/12 00:01:31;;;;;;;20.65;11.52;;;;;;;14.06;100.00;93094.75;6277966;22;20011;-90
2023/10/12 00:03:58;;;;;;;24.60;11.63;;;;;;;14.14;100.00;93110.66;6304089;22;20087;-91
2023/10/12 00:06:30;;;;;;;19.45;10.35;;;;;;;14.02;100.00;93093.78;6278927;22;20011;-91
2023/10/12 00:08:56;;;;;;;23.35;10.15;;;;;;;14.02;100.00;93099.03;6303820;22;20038;-90
2023/10/12 00:11:22;;;;;;;16.60;8.15;;;;;;;13.99;100.00;93092.50;6305400;22;20009;-90
2023/10/12 00:13:51;;;;;;;17.23;8.27;;;;;;;13.90;100.00;93086.34;6304153;22;20015;-92
2023/10/12 00:16:19;;;;;;;13.70;7.93;;;;;;;13.87;100.00;93079.84;6303972;22;20089;-91
2023/10/12 00:18:49;;;;;;;18.20;7.75;;;;;;;13.88;100.00;93084.00;6278540;22;20015;-91
2023/10/12 00:21:18;;;;;;;17.58;6.63;;;;;;;13.90;100.00;93073.97;6277688;22;20018;-91
2023/10/12 00:23:47;;;;;;;17.83;6.82;;;;;;;13.86;100.00;93077.47;6305359;22;20015;-90
2023/10/12 00:26:13;;;;;;;15.73;6.80;;;;;;;13.86;100.00;93080.13;6303801;22;20019;-90
2023/10/12 00:28:39;;;;;;;20.35;6.82;;;;;;;14.01;100.00;93108.00;6252849;22;20007;-91
2023/10/12 00:31:12;;;;;;;24.80;7.15;;;;;;;13.80;100.00;93068.88;6252447;22;20019;-91
2023/10/12 00:33:38;;;;;;;17.80;7.70;;;;;;;13.96;100.00;93098.34;6255904;22;20019;-90
2023/10/12 00:36:11;;;;;;;21.67;8.15;;;;;;;13.86;100.00;93078.25;6278236;22;20011;-91
2023/10/12 00:38:38;;;;;;;16.80;8.35;;;;;;;13.88;100.00;93086.63;6253845;22;20016;-90
2023/10/12 00:41:05;;;;;;;15.13;7.82;;;;;;;13.72;100.00;93066.94;6303262;22;20014;-90
2023/10/12 00:43:36;;;;;;;23.25;8.15;;;;;;;13.66;100.00;93058.34;6305335;22;20019;-91
2023/10/12 00:51:37;;;;;;;14.77;8.05;;;;;;;13.78;100.00;93081.59;6303242;22;20015;-90
2023/10/12 00:54:04;;;;;;;18.52;8.20;;;;;;;13.63;100.00;93069.47;6277694;22;20003;-91
2023/10/12 00:56:30;;;;;;;20.48;8.88;;;;;;;13.81;100.00;93086.25;6303853;22;20515;-89
2023/10/12 00:58:57;;;;;;;18.33;8.43;;;;;;;13.71;100.00;93070.63;6278229;22;20015;-90
2023/10/12 01:01:23;;;;;;;21.52;8.85;;;;;;;13.54;100.00;93040.41;6305027;22;20007;-90
2023/10/12 01:03:50;;;;;;;17.25;9.45;;;;;;;13.58;100.00;93055.59;6304928;22;20022;-91
2023/10/12 01:06:28;;;;;;;22.30;9.90;;;;;;;13.49;100.00;93045.00;6252656;22;20011;-90
2023/10/12 01:08:59;;;;;;;18.52;9.13;;;;;;;13.55;100.00;93056.97;6278258;22;20011;-91
2023/10/12 01:11:36;;;;;;;16.80;8.02;;;;;;;13.60;100.00;93066.63;6305211;22;20014;-90
2023/10/12 01:17:17;;;;;;;17.40;7.45;;;;;;;13.61;100.00;93055.81;6303727;22;20381;-91
2023/10/12 01:19:44;;;;;;;15.15;7.18;;;;;;;13.58;100.00;93042.47;6287312;22;20012;-90
2023/10/12 01:22:11;;;;;;;19.17;8.05;;;;;;;13.54;100.00;93034.38;6280869;22;20042;-90
2023/10/12 01:24:47;;;;;;;19.52;8.75;;;;;;;13.70;100.00;93058.56;6255917;22;20011;-90
2023/10/12 01:27:14;;;;;;;19.77;7.05;;;;;;;13.49;100.00;93024.72;6304997;22;20023;-90
2023/10/12 01:29:40;;;;;;;18.13;7.45;;;;;;;13.61;100.00;93042.66;6305939;22;20477;-91
2023/10/12 01:34:37;;;;;;;21.97;7.87;;;;;;;13.63;100.00;93037.91;6280679;22;20110;-90
2023/10/12 01:37:21;;;;;;;18.08;7.63;;;;;;;13.45;100.00;93015.88;6279671;22;20477;-90
2023/10/12 01:45:40;;;;;;;20.88;7.68;;;;;;;13.63;100.00;93055.53;6304848;22;20019;-90
2023/10/12 01:48:16;;;;;;;16.98;7.95;;;;;;;13.49;100.00;93040.50;6304135;22;20626;-91
2023/10/12 01:50:47;;;;;;;14.50;7.88;;;;;;;13.47;100.00;93044.50;6257787;22;20019;-90
2023/10/12 01:53:29;;;;;;;18.23;8.35;;;;;;;13.34;100.00;93027.63;6304661;22;20064;-89
2023/10/12 01:55:55;;;;;;;18.75;7.75;;;;;;;13.31;100.00;93025.59;6279336;22;20015;-90
2023/10/12 01:58:27;;;;;;;23.15;9.70;;;;;;;13.23;100.00;93016.47;6278617;22;20011;-90
2023/10/12 02:00:54;;;;;;;20.40;9.00;;;;;;;13.28;100.00;93026.94;6254380;22;20046;-90
2023/10/12 02:03:31;;;;;;;20.30;9.50;;;;;;;13.43;100.00;93044.28;6307182;22;20340;-90
2023/10/12 02:06:13;;;;;;;21.55;9.85;;;;;;;13.37;100.00;93029.66;6305010;22;20278;-91
2023/10/12 02:08:40;;;;;;;18.38;9.60;;;;;;;13.47;100.00;93047.13;6279507;22;20073;-90
2023/10/12 02:13:50;;;;;;;18.58;9.18;;;;;;;13.21;100.00;93002.84;6305111;22;20007;-90
2023/10/12 02:16:30;;;;;;;21.42;9.45;;;;;;;13.36;100.00;93028.13;6304816;22;20011;-90
2023/10/12 02:18:56;;;;;;;24.08;9.35;;;;;;;13.27;100.00;93011.44;6255792;22;20410;-90
2023/10/12 02:21:25;;;;;;;19.00;9.05;;;;;;;13.42;100.00;93031.44;6253628;22;20022;-90
2023/10/12 02:23:57;;;;;;;19.50;8.50;;;;;;;13.22;100.00;93009.66;6279637;22;20019;-90
2023/10/12 02:34:20;;;;;;;14.45;6.60;;;;;;;13.12;100.00;92997.44;6334776;22;20066;-90
2023/10/12 02:39:46;;;;;;;19.73;8.20;;;;;;;13.28;100.00;93026.16;6314051;22;20007;-90
2023/10/12 02:47:25;;;;;;;13.68;6.93;;;;;;;13.12;100.00;93021.13;6310260;22;20008;-90
2023/10/12 02:50:15;;;;;;;18.55;6.55;;;;;;;13.09;100.00;93023.56;6320100;22;20019;-90
2023/10/12 02:52:44;;;;;;;13.00;6.80;;;;;;;12.92;100.00;92995.16;6315774;22;20015;-90
2023/10/12 02:55:26;;;;;;;18.35;7.43;;;;;;;13.10;100.00;93035.63;6307453;22;20003;-90
2023/10/12 02:57:54;;;;;;;18.00;7.20;;;;;;;12.84;100.00;92995.84;6308379;22;20007;-90
2023/10/12 03:00:46;;;;;;;18.10;8.18;;;;;;;12.97;100.00;93016.13;6318470;22;20056;-90
2023/10/12 03:03:48;;;;;;;17.65;8.57;;;;;;;12.83;100.00;92997.66;6303557;22;20015;-91
2023/10/12 03:06:10;;;;;;;;;;;;;;;13.09;100.00;93034.84;6298376;22;20156;-90
2023/10/12 03:09:01;;;;;;;20.60;9.15;;;;;;;13.08;100.00;93035.13;6255272;22;19945;-90
2023/10/12 03:11:31;;;;;;;23.80;9.43;;;;;;;12.96;100.00;93011.91;6278191;22;20371;-90
2023/10/12 03:16:24;;;;;;;21.25;10.05;;;;;;;13.01;100.00;93019.72;6304596;22;20459;-90
2023/10/12 03:19:00;;;;;;;18.88;9.48;;;;;;;13.07;100.00;93030.94;6279044;22;20007;-89
2023/10/12 03:21:33;;;;;;;20.17;9.88;;;;;;;13.03;100.00;93029.94;6278483;22;20011;-90
2023/10/12 03:24:02;;;;;;;17.83;8.52;;;;;;;12.90;100.00;93016.50;6304098;22;20019;-90
2023/10/12 03:26:29;;;;;;;19.38;9.70;;;;;;;12.97;100.00;93028.47;6304703;22;20007;-90
2023/10/12 03:35:01;;;;;;;20.60;9.85;;;;;;;12.88;100.00;93025.72;6280371;22;20019;-90
2023/10/12 03:36:59;;;;;;;25.75;10.80;;;;;;;12.87;100.00;93026.78;6286315;22;20350;-90
2023/10/12 03:39:28;;;;;;;21.67;10.90;;;;;;;12.91;100.00;93030.41;6304304;22;20007;-90
2023/10/12 03:41:55;;;;;;;22.25;10.88;;;;;;;12.91;100.00;93033.03;6303834;22;20015;-90
2023/10/12 03:46:57;;;;;;;21.65;11.00;;;;;;;12.89;100.00;93029.91;6278355;22;20023;-90
2023/10/12 03:51:58;;;;;;;20.88;10.63;;;;;;;12.83;100.00;93013.44;6305172;22;20425;-89
2023/10/12 03:54:28;;;;;;;21.05;11.02;;;;;;;12.83;100.00;93010.03;6305113;22;20459;-90
2023/10/12 03:57:19;;;;;;;24.65;11.13;;;;;;;12.84;100.00;93014.22;6318291;22;19995;-89
2023/10/12 04:00:23;;;;;;;20.83;10.57;;;;;;;12.98;100.00;93038.69;6285281;22;20025;-89
2023/10/12 04:02:45;;;;;;;20.60;10.98;;;;;;;12.81;100.00;93007.72;6310856;22;20011;-89
2023/10/12 04:13:55;;;;;;;22.63;11.95;;;;;;;12.71;100.00;92992.88;6304047;22;20015;-90
2023/10/12 04:16:27;;;;;;;26.08;12.00;;;;;;;12.79;100.00;93009.84;6304155;22;20468;-90
2023/10/12 04:21:27;;;;;;;27.88;12.73;;;;;;;12.77;100.00;93016.44;6251463;22;20030;-91
2023/10/12 04:26:37;;;;;;;21.15;11.85;;;;;;;12.85;100.00;93029.69;6304161;22;20126;-90
2023/10/12 04:29:21;;;;;;;23.13;11.73;;;;;;;12.83;100.00;93031.03;6303758;22;20043;-90
2023/10/12 04:31:56;;;;;;;22.75;12.18;;;;;;;12.67;100.00;92991.09;6276987;22;20086;-90
2023/10/12 04:34:26;;;;;;;27.42;12.68;;;;;;;12.69;100.00;93008.13;6304301;22;20072;-91
2023/10/12 04:37:10;;;;;;;26.05;12.73;;;;;;;12.76;100.00;93014.88;6276126;22;20124;-91
2023/10/12 04:39:38;;;;;;;22.45;11.15;;;;;;;12.77;100.00;93019.06;6277454;22;20007;-89
2023/10/12 04:42:11;;;;;;;18.35;9.73;;;;;;;12.83;100.00;93025.78;6306024;22;20034;-90
2023/10/12 04:44:43;;;;;;;23.35;9.32;;;;;;;12.83;100.00;93021.31;6277967;22;20014;-90
2023/10/12 04:47:10;;;;;;;21.90;8.98;;;;;;;12.67;100.00;93007.63;6277164;22;20322;-89
2023/10/12 04:57:26;;;;;;;16.13;7.63;;;;;;;12.70;100.00;93037.81;6303369;22;20014;-90
2023/10/12 05:02:42;;;;;;;21.38;8.70;;;;;;;12.58;100.00;93030.34;6305636;22;20011;-90
2023/10/12 05:05:15;;;;;;;14.55;9.25;;;;;;;12.42;100.00;93002.75;6305670;22;20014;-90
2023/10/12 05:07:59;;;;;;;;;;;;;;;12.69;100.00;93046.75;6305153;22;20015;-90
2023/10/12 05:13:04;;;;;;;22.08;9.18;;;;;;;12.67;100.00;93043.63;6305140;22;20039;-91
2023/10/12 05:15:41;;;;;;;19.40;9.57;;;;;;;12.66;100.00;93042.84;6305584;22;20061;-90
2023/10/12 05:18:08;;;;;;;18.38;8.73;;;;;;;12.60;100.00;93033.47;6305280;22;20026;-90
2023/10/12 05:20:34;;;;;;;19.17;8.63;;;;;;;12.66;100.00;93045.47;6279900;22;20007;-91
2023/10/12 05:23:04;;;;;;;18.38;8.73;;;;;;;12.54;100.00;93024.13;6304816;22;20038;-92
2023/10/12 05:25:48;;;;;;;16.10;7.90;;;;;;;12.70;100.00;93051.72;6306780;22;20007;-92
2023/10/12 05:28:18;;;;;;;16.80;8.07;;;;;;;12.53;100.00;93035.69;6305871;22;20413;-90
2023/10/12 05:30:50;;;;;;;18.55;7.95;;;;;;;12.53;100.00;93038.31;6279058;22;20068;-91
2023/10/12 05:36:09;;;;;;;22.80;8.18;;;;;;;12.55;100.00;93038.81;6303413;22;20024;-91
2023/10/12 05:38:38;;;;;;;19.55;7.72;;;;;;;12.50;100.00;93028.38;6304233;22;20450;-91
2023/10/12 05:41:08;;;;;;;13.68;7.63;;;;;;;12.56;100.00;93027.22;6276161;22;20376;-90
2023/10/12 05:43:40;;;;;;;15.48;7.57;;;;;;;12.58;100.00;93030.34;6304150;22;20007;-92
2023/10/12 05:46:15;;;;;;;16.55;6.88;;;;;;;12.57;100.00;93028.03;6303242;22;20015;-91
2023/10/12 05:48:45;;;;;;;16.13;7.22;;;;;;;12.60;100.00;93027.44;6305172;22;20077;-90
2023/10/12 05:51:15;;;;;;;18.88;8.50;;;;;;;12.75;100.00;93044.84;6280849;22;20049;-91
2023/10/12 05:53:40;;;;;;;16.00;8.20;;;;;;;12.68;100.00;93035.47;6305699;22;20018;-90
2023/10/12 05:56:06;;;;;;;21.75;7.90;;;;;;;12.96;100.00;93061.06;6305244;22;20015;-91
2023/10/12 05:58:34;;;;;;;17.83;7.68;;;;;;;12.90;100.00;93045.41;6306031;22;20007;-91
2023/10/12 06:01:08;;;;;;;16.35;7.22;;;;;;;13.08;100.00;93064.84;6279863;22;20138;-90
2023/10/12 06:03:36;;;;;;;21.38;7.38;;;;;;;13.21;100.00;93073.03;6280044;22;20015;-91
2023/10/12 06:06:02;;;;;;;17.73;7.63;;;;;;;13.35;100.00;93052.06;6279784;22;20019;-90
2023/10/12 06:08:30;;;;;;;18.20;7.68;;;;;;;13.83;100.00;93078.84;6278956;22;20090;-91
2023/10/12 06:10:58;;;;;;;17.63;8.82;;;;;;;14.29;100.00;93048.22;6279233;22;19999;-91
2023/10/12 06:13:32;;;;;;;18.60;7.60;;;;;;;14.85;100.00;93059.44;6307202;22;20007;-91
2023/10/12 06:16:00;;;;;;;16.52;7.53;;;;;;;15.40;100.00;93069.75;6279439;22;20015;-90
2023/10/12 06:18:30;;;;;;;14.48;6.65;;;;;;;15.87;100.00;93096.56;6305567;22;20011;-92
2023/10/12 06:20:59;;;;;;;14.98;7.85;;;;;;;16.14;100.00;93085.03;6307252;22;20078;-92
2023/10/12 06:23:25;;;;;;;17.15;7.68;;;;;;;16.37;100.00;93091.03;6305059;22;20015;-91
2023/10/12 06:25:51;;;;;;;15.85;7.53;;;;;;;16.24;100.00;93081.34;6306937;22;20334;-91
2023/10/12 06:28:17;;;;;;;18.30;8.13;;;;;;;16.17;100.00;93059.91;6305399;22;20015;-92
2023/10/12 06:30:46;;;;;;;15.57;6.80;;;;;;;16.43;100.00;93062.59;6306655;22;20410;-91
2023/10/12 06:33:15;;;;;;;58.10;9.15;;;;;;;16.73;100.00;93060.13;6305014;22;20015;-91
2023/10/12 06:36:22;;;;;;;54.58;10.02;;;;;;;17.11;100.00;93092.06;6279241;22;20027;-91
2023/10/12 06:38:47;;;;;;;20.95;7.15;;;;;;;17.40;100.00;93078.19;6303272;22;20074;-92
2023/10/12 06:46:50;;;;;;;20.20;6.03;;;;;;;18.20;100.00;93108.72;6334177;22;20007;-90
2023/10/12 06:49:21;;;;;;;12.93;6.22;;;;;;;17.95;100.00;93082.00;6334791;22;20030;-92
2023/10/12 06:52:00;;;;;;;17.10;6.93;;;;;;;18.00;100.00;93089.75;6308344;22;20028;-91
2023/10/12 06:54:33;;;;;;;11.40;5.93;;;;;;;18.60;100.00;93105.69;6308514;22;20034;-91
2023/10/12 07:02:33;;;;;;;12.93;6.47;;;;;;;19.32;100.00;93109.94;6315910;22;20015;-92
2023/10/12 07:05:06;;;;;;;16.13;6.47;;;;;;;19.05;100.00;93113.09;6291809;22;20023;-90
2023/10/12 07:07:41;;;;;;;16.52;6.43;;;;;;;18.65;100.00;93094.94;6309399;22;20052;-90
2023/10/12 07:15:14;;;;;;;16.25;7.75;;;;;;;18.30;100.00;93108.34;6305762;22;20011;-92
2023/10/12 07:17:48;;;;;;;16.17;7.13;;;;;;;18.44;100.00;93135.44;6304795;22;20022;-92
2023/10/12 07:22:54;;;;;;;18.42;5.90;;;;;;;18.39;100.00;93138.22;6304797;22;20039;-92
2023/10/12 07:25:22;;;;;;;12.93;6.00;;;;;;;18.10;100.00;93121.22;6253881;22;20433;-92
2023/10/12 07:27:51;;;;;;;14.90;5.55;;;;;;;18.00;100.00;93129.50;6304383;22;20022;-91
2023/10/12 07:30:30;;;;;;;14.82;6.10;;;;;;;18.20;100.00;93128.03;6278820;22;20393;-91
2023/10/12 07:32:59;;;;;;;13.27;6.63;;;;;;;18.12;100.00;93123.53;6279001;22;20034;-91
2023/10/12 07:35:34;;;;;;;18.40;6.97;;;;;;;18.36;100.00;93128.28;6278858;22;20471;-91
2023/10/12 07:38:01;;;;;;;24.58;8.30;;;;;;;18.35;100.00;93136.53;6278944;22;20429;-92
2023/10/12 07:40:34;;;;;;;15.13;6.85;;;;;;;18.71;100.00;93128.09;6304499;22;20003;-91
2023/10/12 07:43:07;;;;;;;20.60;8.52;;;;;;;18.73;100.00;93115.28;6280643;22;20375;-92
2023/10/12 07:45:40;;;;;;;18.48;7.00;;;;;;;18.80;100.00;93120.91;6278842;22;20072;-93
2023/10/12 07:48:11;;;;;;;19.98;7.80;;;;;;;19.00;100.00;93135.28;6304089;22;20015;-91
2023/10/12 07:50:45;;;;;;;21.13;7.93;;;;;;;19.17;100.00;93136.28;6278722;22;20047;-91
2023/10/12 07:53:23;;;;;;;14.32;7.63;;;;;;;19.64;100.00;93144.03;6304017;22;20015;-92
2023/10/12 07:55:58;;;;;;;14.60;7.97;;;;;;;19.87;100.00;93149.78;6280667;22;20043;-92
2023/10/12 07:58:31;;;;;;;;;;;;;;;20.44;100.00;93162.28;6281031;22;20390;-92
2023/10/12 08:03:50;;;;;;;21.98;7.80;;;;;;;20.49;100.00;93159.44;6304031;22;20022;-91
2023/10/12 08:06:30;;;;;;;19.80;8.18;;;;;;;19.99;100.00;93155.09;6279138;22;20349;-91
2023/10/12 08:09:19;;;;;;;16.52;7.78;;;;;;;19.45;100.00;93129.31;6278581;22;20030;-92
2023/10/12 08:11:45;;;;;;;15.15;7.50;;;;;;;19.41;100.00;93144.38;6304388;22;20449;-91
2023/10/12 08:14:39;;;;;;;13.30;6.20;;;;;;;18.78;100.00;93123.13;6278096;22;20025;-91
2023/10/12 08:19:56;;;;;;;12.77;6.18;;;;;;;18.82;100.00;93149.75;6304541;22;20015;-93
2023/10/12 08:22:29;;;;;;;14.40;6.40;;;;;;;18.89;100.00;93126.94;6304174;22;20015;-91
2023/10/12 08:24:58;;;;;;;13.85;6.20;;;;;;;19.33;100.00;93151.28;6303979;22;20337;-91
2023/10/12 08:27:39;;;;;;;16.33;6.97;;;;;;;19.51;100.00;93127.25;6305265;22;20016;-91
2023/10/12 08:30:23;;;;;;;20.00;8.63;;;;;;;19.45;100.00;93124.00;6304220;22;20022;-91
2023/10/12 08:32:59;;;;;;;16.10;9.30;;;;;;;19.22;100.00;93144.03;6303850;22;20012;-93
2023/10/12 08:36:10;;;;;;;14.35;7.72;;;;;;;19.11;100.00;93119.75;6303957;22;20498;-93
2023/10/12 08:38:40;;;;;;;20.15;9.20;;;;;;;19.50;100.00;93112.44;6266261;22;20094;-92
2023/10/12 08:43:52;;;;;;;24.20;12.90;;;;;;;19.78;100.00;93130.50;6304055;22;20022;-91
2023/10/12 08:46:51;;;;;;;18.50;10.23;;;;;;;20.21;100.00;93131.91;6278161;22;20014;-91
2023/10/12 08:52:05;;;;;;;24.05;11.43;;;;;;;20.49;100.00;93142.66;6304084;22;20022;-90
2023/10/12 08:54:35;;;;;;;25.65;10.15;;;;;;;20.27;100.00;93144.66;6222058;22;20023;-92
2023/10/12 08:57:09;;;;;;;18.25;9.88;;;;;;;20.18;100.00;93136.78;6272960;22;20035;-91
2023/10/12 08:59:39;;;;;;;22.55;9.10;;;;;;;19.61;100.00;93121.56;6274654;22;20315;-91
2023/10/12 09:02:18;;;;;;;19.58;9.60;;;;;;;19.36;100.00;93133.94;6272853;22;20330;-90
2023/10/12 09:04:55;;;;;;;18.33;8.60;;;;;;;19.26;100.00;93127.16;6225162;22;20022;-91
2023/10/12 09:07:21;;;;;;;22.50;9.75;;;;;;;20.09;100.00;93153.94;6247481;22;20023;-91
2023/10/12 09:09:55;;;;;;;17.02;10.15;;;;;;;20.56;100.00;93133.09;6272960;22;20012;-91
2023/10/12 09:12:21;;;;;;;22.52;12.02;;;;;;;21.34;100.00;93139.19;6273119;22;20014;-91
2023/10/12 09:14:54;;;;;;;21.08;11.10;;;;;;;21.84;100.00;93150.47;6247900;22;20039;-91
2023/10/12 09:17:27;;;;;;;22.33;10.10;;;;;;;21.66;100.00;93155.34;6298521;22;20011;-92
2023/10/12 09:22:46;;;;;;;19.25;8.68;;;;;;;21.35;100.00;93147.97;6286288;22;20023;-90
2023/10/12 09:25:35;;;;;;;18.88;9.98;;;;;;;21.50;100.00;93160.56;6296271;22;20043;-93
2023/10/12 09:28:03;;;;;;;26.35;11.38;;;;;;;21.26;100.00;93148.09;6298672;22;20063;-93
2023/10/12 09:30:34;;;;;;;21.15;9.50;;;;;;;21.45;100.00;93163.47;6276156;22;20008;-92
2023/10/12 09:33:11;;;;;;;19.25;9.48;;;;;;;21.21;100.00;93145.66;6265898;22;20042;-93
2023/10/12 09:35:42;;;;;;;26.70;10.07;;;;;;;21.35;100.00;93164.72;6250163;22;20385;-94
2023/10/12 09:38:08;;;;;;;17.77;8.38;;;;;;;21.67;100.00;93180.06;6275247;22;20012;-93
2023/10/12 09:40:39;;;;;;;17.63;8.75;;;;;;;21.79;100.00;93180.78;6272790;22;20023;-93
2023/10/12 09:43:17;;;;;;;22.87;9.07;;;;;;;21.59;100.00;93152.44;6247791;22;20011;-94
2023/10/12 09:45:55;;;;;;;19.77;9.35;;;;;;;21.69;100.00;93151.22;6248565;22;20043;-93
2023/10/12 09:48:29;;;;;;;18.52;8.55;;;;;;;21.56;100.00;93182.44;6275281;22;20012;-94
2023/10/12 09:50:59;;;;;;;20.23;8.32;;;;;;;21.25;100.00;93140.44;6225818;22;20012;-94
2023/10/12 09:53:40;;;;;;;18.75;9.73;;;;;;;21.22;100.00;93144.53;6249130;22;20422;-94
2023/10/12 09:56:19;;;;;;;19.15;9.75;;;;;;;21.07;100.00;93122.03;6275362;22;20015;-95
2023/10/12 09:58:52;;;;;;;15.80;8.23;;;;;;;20.98;100.00;93148.81;6273911;22;20035;-95
2023/10/12 10:05:10;;;;;;;;;;;;;;;;;;;;;
2023/10/12 10:11:27;;;;;;;16.38;8.55;;;;;;;21.06;100.00;93149.03;6160306;23;20100;-94
2023/10/12 10:15:05;;;;;;;16.73;6.93;;;;;;;21.00;100.00;93113.84;6159863;23;20092;-93
2023/10/12 10:18:05;;;;;;;19.35;7.78;;;;;;;20.99;100.00;93128.28;6121949;23;20009;-93
2023/10/12 10:21:30;;;;;;;;;;;;;;;;;;;;;
2023/10/12 10:24:30;;;;;;;22.13;8.32;;;;;;;21.05;100.00;93115.50;6177884;22;20027;-93
2023/10/12 10:27:34;;;;;;;15.80;7.30;;;;;;;21.28;100.00;93132.56;6273951;22;20019;-94
2023/10/12 10:30:37;;;;;;;;;;;;;;;;;;;;;
2023/10/12 10:33:36;;;;;;;18.58;7.50;;;;;;;20.80;100.00;93126.19;6275173;22;20015;-93
2023/10/12 10:37:11;;;;;;;17.15;7.43;;;;;;;20.88;100.00;93119.97;6255837;22;20118;-95
2023/10/12 10:44:03;;;;;;;;;;;;;;;;;;;;;
2023/10/12 10:46:43;;;;;;;21.23;8.75;;;;;;;20.17;100.00;93102.56;6276441;22;20073;-94
2023/10/12 10:53:09;;;;;;;17.83;8.40;;;;;;;20.80;100.00;93115.53;6155906;22;20004;-93
2023/10/12 10:56:46;;;;;;;;;;;;;;;;;;;;;
2023/10/12 11:02:52;;;;;;;14.32;7.40;;;;;;;20.71;100.00;93110.34;6241318;22;20012;-93
2023/10/12 11:05:23;;;;;;;22.75;9.65;;;;;;;20.97;100.00;93087.94;6250001;22;20015;-94
2023/10/12 11:13:39;;;;;;;17.92;8.85;;;;;;;22.07;100.00;93084.06;6264162;22;20015;-94
2023/10/12 11:16:29;;;;;;;18.10;8.00;;;;;;;22.03;100.00;93083.19;6223102;22;20315;-93
2023/10/12 11:19:08;;;;;;;;;;;;;;;;;;;;;
2023/10/12 11:21:57;;;;;;;21.13;7.55;;;;;;;21.34;100.00;93085.91;6248287;22;20374;-95
2023/10/12 11:32:32;;;;;;;;;;;;;;;;;;;;;
2023/10/12 11:35:45;;;;;;;20.65;7.30;;;;;;;21.58;100.00;93076.31;6011004;23;20015;-93
2023/10/12 11:38:17;;;;;;;15.45;7.45;;;;;;;21.52;100.00;93059.81;6008127;23;20054;-92
2023/10/12 11:41:16;;;;;;;18.10;8.55;;;;;;;21.85;100.00;93052.66;6013552;23;20409;-95
2023/10/12 11:44:07;;;;;;;15.68;7.68;;;;;;;21.89;100.00;93064.19;6035310;23;20015;-94
2023/10/12 11:46:52;;;;;;;15.55;7.78;;;;;;;22.10;100.00;93054.03;6068990;23;20017;-92
2023/10/12 11:49:33;;;;;;;;;;;;;;;;;;;;;
2023/10/12 11:52:16;;;;;;;14.07;7.78;;;;;;;22.47;100.00;93056.44;6226977;22;20077;-93
2023/10/12 11:54:50;;;;;;;17.13;7.07;;;;;;;22.69;100.00;93065.69;6199938;22;20012;-95
2023/10/12 11:57:54;;;;;;;21.48;7.43;;;;;;;22.15;100.00;93032.44;6226059;22;20024;-94
2023/10/12 12:00:51;;;;;;;16.67;7.10;;;;;;;22.06;100.00;93060.41;6225910;22;20007;-94
2023/10/12 12:04:24;;;;;;;14.32;6.50;;;;;;;21.83;100.00;93032.44;6272659;22;20062;-95
2023/10/12 13:25:18;;;;;;;14.85;7.25;;;;;;;21.20;100.00;92989.69;6258813;22;20027;-96
2023/10/12 13:28:10;;;;;;;12.88;7.22;;;;;;;21.14;100.00;92969.75;6247875;22;20016;-94
2023/10/12 13:30:39;;;;;;;15.35;7.30;;;;;;;21.05;100.00;92979.78;6248953;22;20034;-94
2023/10/12 13:33:11;;;;;;;14.57;7.63;;;;;;;20.80;100.00;92987.84;6249493;22;20054;-96
2023/10/12 13:38:34;;;;;;;15.95;7.65;;;;;;;20.91;100.00;92986.25;6248277;22;20042;-94
2023/10/12 13:41:05;;;;;;;16.80;7.80;;;;;;;20.89;100.00;92964.53;6249397;22;20283;-93
2023/10/12 13:43:37;;;;;;;19.33;7.68;;;;;;;21.11;100.00;92981.84;6250177;22;20081;-94
2023/10/12 13:46:10;;;;;;;12.65;7.45;;;;;;;20.98;100.00;92957.19;6223942;22;20066;-93
2023/10/12 13:48:40;;;;;;;17.17;7.53;;;;;;;21.02;100.00;92983.13;6223798;22;20366;-95
2023/10/12 13:51:13;;;;;;;14.50;7.90;;;;;;;21.04;100.00;92970.25;6248397;22;20330;-96
2023/10/12 13:53:41;;;;;;;18.27;8.57;;;;;;;20.95;100.00;92976.50;6225025;22;20487;-95
2023/10/12 13:56:11;;;;;;;17.58;8.05;;;;;;;20.86;100.00;92975.88;6221930;22;20052;-94
2023/10/12 13:58:42;;;;;;;16.08;8.50;;;;;;;20.51;100.00;92952.44;6224381;22;20481;-95
2023/10/12 14:01:18;;;;;;;13.73;7.05;;;;;;;20.30;100.00;92965.88;6249320;22;20016;-95
2023/10/12 14:03:55;;;;;;;21.13;8.73;;;;;;;20.21;100.00;92959.16;6248261;22;20338;-94
2023/10/12 14:06:27;;;;;;;19.40;8.57;;;;;;;20.25;100.00;92960.03;6201368;22;20019;-95
2023/10/12 14:08:54;;;;;;;;;;;;;;;20.49;100.00;92994.56;6223374;22;20081;-93
2023/10/12 14:11:20;;;;;;;21.48;8.10;;;;;;;20.42;100.00;92953.69;6224083;22;20328;-96
2023/10/12 14:14:06;;;;;;;17.55;8.38;;;;;;;20.76;100.00;92979.78;6248774;22;20024;-95
2023/10/12 14:16:34;;;;;;;18.77;8.25;;;;;;;20.61;100.00;92974.41;6223517;22;20015;-94
2023/10/12 14:19:10;;;;;;;16.17;8.23;;;;;;;20.63;100.00;92983.59;6248178;22;20010;-96
2023/10/12 14:21:40;;;;;;;15.00;9.00;;;;;;;20.31;100.00;92978.09;6224382;22;20393;-94
2023/10/12 14:24:17;;;;;;;14.88;8.70;;;;;;;20.09;100.00;92947.41;6228969;22;20094;-94
2023/10/12 14:26:46;;;;;;;21.92;9.10;;;;;;;20.05;100.00;92964.38;6249170;22;20015;-93
2023/10/12 14:29:12;;;;;;;21.30;8.85;;;;;;;20.25;100.00;92946.75;6227286;22;20024;-94
2023/10/12 14:31:43;;;;;;;14.50;8.20;;;;;;;20.21;100.00;92969.78;6224743;22;20012;-95
2023/10/12 14:34:16;;;;;;;19.02;8.98;;;;;;;19.98;100.00;92946.31;6249346;22;20446;-94
2023/10/12 14:36:52;;;;;;;19.65;8.70;;;;;;;20.18;100.00;92972.00;6224547;22;20458;-96
2023/10/12 14:39:23;;;;;;;17.70;9.52;;;;;;;19.91;100.00;92952.19;6226073;22;20482;-96
2023/10/12 14:41:52;;;;;;;17.15;8.60;;;;;;;19.90;100.00;92952.50;6225269;22;20030;-95
2023/10/12 14:44:30;;;;;;;;;;;;;;;;;;;;;
2023/10/12 14:47:06;;;;;;;19.85;8.88;;;;;;;19.83;100.00;92952.28;6274565;22;20003;-95
2023/10/12 14:49:36;;;;;;;16.27;9.02;;;;;;;19.71;100.00;92939.78;6261948;22;20024;-94
2023/10/12 14:52:11;;;;;;;15.48;8.35;;;;;;;19.79;100.00;92935.47;6302978;22;19995;-94
2023/10/12 14:54:39;;;;;;;14.90;8.57;;;;;;;19.89;100.00;92941.13;6301476;22;20088;-94
2023/10/12 14:57:05;;;;;;;18.25;9.20;;;;;;;19.91;100.00;92938.13;6326738;22;20000;-95
2023/10/12 14:59:33;;;;;;;17.20;8.68;;;;;;;20.13;100.00;92953.63;6301695;22;20007;-95
2023/10/12 15:02:06;;;;;;;16.27;9.68;;;;;;;20.09;100.00;92949.31;6277987;22;20012;-95
2023/10/12 15:04:32;;;;;;;20.63;9.02;;;;;;;20.12;100.00;92949.41;6303187;22;20005;-95
2023/10/12 15:06:58;;;;;;;14.02;8.90;;;;;;;20.11;100.00;92953.19;6303710;22;20086;-95
2023/10/12 15:09:27;;;;;;;16.90;9.15;;;;;;;20.23;100.00;92972.88;6325205;22;20016;-94
2023/10/12 15:11:57;;;;;;;16.27;8.90;;;;;;;20.06;100.00;92963.25;6249727;22;20055;-96
2023/10/12 15:14:31;;;;;;;15.98;8.65;;;;;;;20.03;100.00;92961.25;6225410;22;20314;-94
2023/10/12 15:16:59;;;;;;;16.08;8.60;;;;;;;19.85;100.00;92948.19;6299981;22;20015;-93
2023/10/12 15:19:27;;;;;;;21.58;8.68;;;;;;;20.01;100.00;92966.13;6275860;22;20015;-95
2023/10/12 15:22:06;;;;;;;17.63;8.60;;;;;;;20.00;100.00;92965.38;6275178;22;20020;-96
2023/10/12 15:24:46;;;;;;;18.80;8.18;;;;;;;19.73;100.00;92948.22;6280601;22;20085;-96
2023/10/12 15:27:12;;;;;;;20.13;8.43;;;;;;;19.87;100.00;92969.91;6207789;22;20050;-96
2023/10/12 15:30:01;;;;;;;18.33;7.95;;;;;;;19.72;100.00;92949.31;6279818;22;20015;-95
2023/10/12 15:32:33;;;;;;;17.10;7.55;;;;;;;19.71;100.00;92956.50;6250817;22;20015;-95
2023/10/12 15:35:12;;;;;;;16.73;7.35;;;;;;;19.84;100.00;92991.81;6297336;22;20099;-95
2023/10/12 15:37:46;;;;;;;16.70;7.88;;;;;;;19.58;100.00;92951.47;6249743;22;20019;-96
2023/10/12 15:40:21;;;;;;;15.48;7.57;;;;;;;19.66;100.00;92964.66;6224876;22;20516;-96
2023/10/12 15:42:59;;;;;;;14.55;7.97;;;;;;;19.64;100.00;92968.75;6297828;22;20050;-96
2023/10/12 15:45:32;;;;;;;16.10;6.95;;;;;;;19.52;100.00;92962.31;6298856;22;20046;-96
2023/10/12 15:48:03;;;;;;;19.17;7.50;;;;;;;19.53;100.00;92973.72;6228858;22;20094;-96
2023/10/12 15:50:31;;;;;;;16.13;7.25;;;;;;;19.53;100.00;92976.38;6255620;22;20011;-96